Santa Maria Airport
SBAR : now visible

Airfield :











YOU CAN JOIN US ON...

 
LOGIN :

Register | Disclaimer

   EN    FR    IT 

 









Legend :    VFR   Marginal VFR   IFR   Intensive IFR   Very Intensive IFR
Visi :
Ceiling :
>= 8 km
>= 3000ft
5 to 8 km
1000 to 3000 ft
1500m to 5 km
500 to 1000 ft
800 to 1500m
200 to 500 ft
< 800m
< 200 ft
Symbols :   Thunderstorms  Fog  Heavy snow  Heavy precipitations  Wind > 20 kt






- Airport Elevation : 23 ft
- IATA code : AJU


SBAR - Santa Maria

CURRENT METAR :
  • 050300Z 10008KT 9999 FEW018 27/22 Q1016

EXPIRED METARs :
  • 050200Z 11007KT 9999 FEW017 27/22 Q1016
  • 050100Z 10009KT 9999 FEW017 27/22 Q1016

TAF TAF SBAR
Valid from the 05 at 00:00 until the 06 at 00:00 UTC


042100Z 0500/0600 13008KT 8000 SCT018 TN23/0508Z TX31/0517Z
BECMG 0500/0502 17008KT SCT012
BECMG 0512/0514 SCT020
PROB40
TEMPO 0516/0518 VCSH SCT010 BKN018 RMK PER
SBRE FIR / South America



MET'MAP, your aeronautical weather chart ! - Copyright ORBIFLY December 2007 - Disclaimer

ORBIFLY MET'MAP TEAM :

Programming & Development : Alexandra Zaïnal
Concept & original design : Baudouin d'Aumeries
Assistance for programming : Marc-Olivier Méhu
Technical & hardware support : Manuel Goepfert

Contact : metmap@orbifly.com




SOURCES & CREDITS :

   NOAA       Earth
Advisory